Time;durP1;ratioP1;P1;durP2;ratioP2;P2;SDS_P1;SDS_P2;PMS_P1;PMS_P2;Temp;Humidity;BMP_temperature;BMP_pressure;BME280_temperature;BME280_humidity;BME280_pressure;Samples;Min_cycle;Max_cycle;Signal;HPM_P1;HPM_P2
2023/10/21 00:00:29;;;;;;;150.93;51.17;;;12.00;99.90;;;;;;6158094;23;20411;-92
2023/10/21 00:02:55;;;;;;;95.88;43.17;;;11.80;99.90;;;;;;6159053;23;20360;-91
2023/10/21 00:05:20;;;;;;;132.53;48.40;;;11.80;99.90;;;;;;6160184;23;20368;-92
2023/10/21 00:07:46;;;;;;;131.48;48.65;;;11.40;99.90;;;;;;6158580;23;20372;-91
2023/10/21 00:10:12;;;;;;;139.63;48.75;;;11.90;99.90;;;;;;6160478;23;20386;-92
2023/10/21 00:12:38;;;;;;;139.15;48.38;;;11.60;99.90;;;;;;6158886;23;20501;-92
2023/10/21 00:15:07;;;;;;;210.52;54.47;;;11.90;99.90;;;;;;6158722;23;20380;-92
2023/10/21 00:17:34;;;;;;;123.50;45.38;;;11.70;99.90;;;;;;6159039;23;20379;-91
2023/10/21 00:20:00;;;;;;;122.57;46.67;;;11.60;99.90;;;;;;6158835;23;20758;-92
2023/10/21 00:22:26;;;;;;;153.23;48.88;;;11.70;99.90;;;;;;6160012;23;20372;-92
2023/10/21 00:24:53;;;;;;;154.43;49.00;;;11.70;99.90;;;;;;6159082;23;20852;-90
2023/10/21 00:27:18;;;;;;;163.20;49.08;;;12.20;99.90;;;;;;6158650;23;20368;-92
2023/10/21 00:29:44;;;;;;;203.50;52.40;;;11.80;99.90;;;;;;6157238;23;20503;-91
2023/10/21 00:32:10;;;;;;;146.00;46.42;;;11.90;99.90;;;;;;6158019;23;20904;-94
2023/10/21 00:34:38;;;;;;;115.30;43.83;;;12.10;99.90;;;;;;6158528;23;20844;-92
2023/10/21 00:37:05;;;;;;;152.60;48.30;;;11.60;99.90;;;;;;6158888;23;20379;-92
2023/10/21 00:39:37;;;;;;;276.33;49.78;;;12.00;99.90;;;;;;6159583;23;20388;-93
2023/10/21 00:42:06;;;;;;;175.77;49.40;;;11.80;99.90;;;;;;6158608;23;20390;-92
2023/10/21 00:44:32;;;;;;;173.10;49.10;;;11.80;99.90;;;;;;6159982;23;20391;-90
2023/10/21 00:47:01;;;;;;;175.90;47.88;;;11.50;99.90;;;;;;6158668;23;20375;-92
2023/10/21 00:49:28;;;;;;;150.50;44.33;;;11.50;99.90;;;;;;6159284;23;20379;-92
2023/10/21 00:51:56;;;;;;;129.68;44.38;;;11.90;99.90;;;;;;6159498;23;20354;-93
2023/10/21 00:54:24;;;;;;;178.75;48.42;;;11.80;99.90;;;;;;6158943;23;20401;-91
2023/10/21 00:56:50;;;;;;;155.50;44.37;;;11.50;99.90;;;;;;6159903;23;20383;-91
2023/10/21 00:59:17;;;;;;;149.83;44.37;;;11.50;99.90;;;;;;6158524;23;20391;-92
2023/10/21 01:01:43;;;;;;;141.75;44.78;;;11.30;99.90;;;;;;6159691;23;20380;-91
2023/10/21 01:04:10;;;;;;;140.45;44.45;;;11.80;99.90;;;;;;6158295;23;20428;-92
2023/10/21 01:06:36;;;;;;;209.27;50.60;;;11.90;99.90;;;;;;6159436;23;20367;-91
2023/10/21 01:09:02;;;;;;;187.95;47.47;;;11.80;99.90;;;;;;6158926;23;20371;-92
2023/10/21 01:11:27;;;;;;;126.32;41.95;;;11.40;99.90;;;;;;6158818;23;20408;-92
2023/10/21 01:13:54;;;;;;;123.87;41.83;;;12.10;99.90;;;;;;6158413;23;20400;-91
2023/10/21 01:16:20;;;;;;;191.02;48.17;;;11.50;99.90;;;;;;6158359;23;20380;-92
2023/10/21 01:18:45;;;;;;;151.05;43.88;;;12.10;99.90;;;;;;6159270;23;20391;-92
2023/10/21 01:21:11;;;;;;;150.70;45.60;;;11.50;99.90;;;;;;6158351;23;20367;-91
2023/10/21 01:23:37;;;;;;;150.60;45.55;;;11.50;99.90;;;;;;6159829;23;20455;-92
2023/10/21 01:26:04;;;;;;;186.73;48.40;;;11.60;99.90;;;;;;6158436;23;20411;-92
2023/10/21 01:28:30;;;;;;;137.20;42.35;;;12.00;99.90;;;;;;6158719;23;20403;-94
2023/10/21 01:30:56;;;;;;;111.82;39.47;;;11.60;99.90;;;;;;6159021;23;20364;-92
2023/10/21 01:33:22;;;;;;;118.22;39.72;;;12.00;99.90;;;;;;6158346;23;20411;-92
2023/10/21 01:35:48;;;;;;;168.80;44.72;;;11.90;99.90;;;;;;6159281;23;20379;-91
2023/10/21 01:38:15;;;;;;;105.97;36.92;;;12.00;99.90;;;;;;6157820;23;20812;-92
2023/10/21 01:40:41;;;;;;;88.65;36.05;;;12.00;99.90;;;;;;6159182;23;20418;-92
2023/10/21 01:43:07;;;;;;;101.55;36.17;;;11.60;99.90;;;;;;6158059;23;20363;-92
2023/10/21 01:45:36;;;;;;;97.80;37.53;;;11.70;99.90;;;;;;6158993;23;20416;-93
2023/10/21 01:48:02;;;;;;;109.00;37.97;;;11.50;99.90;;;;;;6158615;23;20406;-93
2023/10/21 01:50:29;;;;;;;85.70;34.67;;;11.80;99.90;;;;;;6157631;23;20686;-92
2023/10/21 01:52:55;;;;;;;95.82;37.97;;;11.50;99.90;;;;;;6158515;23;20406;-93
2023/10/21 01:55:21;;;;;;;74.93;33.53;;;11.70;99.90;;;;;;6157981;23;20364;-91
2023/10/21 01:57:47;;;;;;;69.90;31.73;;;11.80;99.90;;;;;;6158862;23;20364;-93
2023/10/21 02:00:18;;;;;;;76.70;33.50;;;12.10;99.90;;;;;;6158564;23;20494;-94
2023/10/21 02:02:51;;;;;;;74.00;32.22;;;11.80;99.90;;;;;;6183442;23;20376;-93
2023/10/21 02:05:18;;;;;;;84.65;33.17;;;11.80;99.90;;;;;;6158497;23;20363;-93
2023/10/21 02:07:43;;;;;;;143.10;40.93;;;11.80;99.90;;;;;;6157876;23;20442;-94
2023/10/21 02:10:09;;;;;;;94.87;33.83;;;12.10;99.90;;;;;;6159051;23;20399;-93
2023/10/21 02:12:35;;;;;;;74.07;30.13;;;12.00;99.90;;;;;;6157690;23;20438;-93
2023/10/21 02:15:01;;;;;;;92.20;33.28;;;11.90;99.90;;;;;;6158794;23;20422;-93
2023/10/21 02:17:27;;;;;;;85.80;33.47;;;11.70;99.90;;;;;;6157258;23;20367;-92
2023/10/21 02:19:56;;;;;;;87.17;32.87;;;12.00;99.90;;;;;;6158707;23;21045;-92
2023/10/21 02:22:26;;;;;;;62.85;28.08;;;12.10;99.90;;;;;;6158005;23;20406;-92
2023/10/21 02:24:53;;;;;;;69.78;29.35;;;11.70;99.90;;;;;;6157940;23;20760;-93
2023/10/21 02:27:19;;;;;;;63.78;27.20;;;11.90;99.90;;;;;;6158261;23;20838;-93
2023/10/21 02:29:44;;;;;;;65.15;27.23;;;11.90;99.90;;;;;;6157309;23;20906;-93
2023/10/21 02:32:10;;;;;;;59.47;26.13;;;11.90;99.90;;;;;;6158979;23;20371;-94
2023/10/21 02:34:36;;;;;;;75.10;28.50;;;11.90;99.90;;;;;;6157045;23;21004;-92
2023/10/21 02:37:01;;;;;;;71.67;29.67;;;12.30;99.90;;;;;;6158832;23;20729;-94
2023/10/21 02:39:27;;;;;;;68.70;27.10;;;11.50;99.90;;;;;;6157368;23;20906;-92
2023/10/21 02:41:53;;;;;;;68.43;27.17;;;11.70;99.90;;;;;;6158921;23;20725;-92
2023/10/21 02:44:19;;;;;;;79.30;28.88;;;11.70;99.90;;;;;;6152971;23;20377;-92
2023/10/21 02:46:45;;;;;;;68.93;27.88;;;11.70;99.90;;;;;;6128069;23;20672;-92
2023/10/21 02:49:11;;;;;;;65.30;26.73;;;12.10;99.90;;;;;;6129304;23;20400;-92
2023/10/21 02:51:36;;;;;;;60.93;25.63;;;11.60;99.90;;;;;;6127821;23;20378;-92
2023/10/21 02:54:02;;;;;;;45.67;22.58;;;11.30;99.90;;;;;;6129422;23;20385;-93
2023/10/21 02:56:27;;;;;;;60.10;25.23;;;11.30;99.90;;;;;;6127796;23;21257;-92
2023/10/21 02:58:53;;;;;;;62.65;24.80;;;11.40;99.90;;;;;;6128884;23;20394;-91
2023/10/21 03:01:21;;;;;;;73.97;26.67;;;11.30;99.90;;;;;;6128417;23;20369;-92
2023/10/21 03:03:48;;;;;;;53.78;24.00;;;11.30;99.90;;;;;;6128635;23;20440;-92
2023/10/21 03:06:16;;;;;;;72.67;26.87;;;11.40;99.90;;;;;;6129153;23;20366;-92
2023/10/21 03:08:42;;;;;;;65.38;26.08;;;11.40;99.90;;;;;;6127941;23;20377;-92
2023/10/21 03:11:08;;;;;;;62.83;24.92;;;11.50;99.90;;;;;;6129423;23;20872;-96
2023/10/21 03:13:38;;;;;;;74.65;26.67;;;11.60;99.90;;;;;;6127446;23;20366;-92
2023/10/21 03:16:12;;;;;;;57.58;24.73;;;11.20;99.90;;;;;;6129152;23;20387;-94
2023/10/21 03:18:40;;;;;;;56.03;24.92;;;11.20;99.90;;;;;;6128632;23;20845;-92
2023/10/21 03:21:07;;;;;;;56.47;24.20;;;10.90;99.90;;;;;;6128460;23;20409;-92
2023/10/21 03:23:33;;;;;;;51.50;22.03;;;11.50;99.90;;;;;;6129279;23;20442;-92
2023/10/21 03:26:07;;;;;;;52.40;23.67;;;11.20;99.90;;;;;;6128532;23;20455;-92
2023/10/21 03:28:33;;;;;;;72.80;25.77;;;11.50;99.90;;;;;;6129385;23;20381;-93
2023/10/21 03:31:00;;;;;;;61.65;25.20;;;11.90;99.90;;;;;;6127610;23;20372;-92
2023/10/21 03:33:29;;;;;;;105.40;30.80;;;11.30;99.90;;;;;;6129182;23;20365;-92
2023/10/21 03:35:59;;;;;;;52.30;24.08;;;11.30;99.90;;;;;;6128210;23;20369;-92
2023/10/21 03:38:25;;;;;;;69.22;27.40;;;11.30;99.90;;;;;;6130355;23;20372;-92
2023/10/21 03:40:59;;;;;;;141.85;36.10;;;10.90;99.90;;;;;;6130812;23;20460;-92
2023/10/21 03:43:25;;;;;;;52.75;23.17;;;11.10;99.90;;;;;;6129183;23;20467;-92
2023/10/21 03:45:52;;;;;;;81.20;29.67;;;11.30;99.90;;;;;;6131437;23;20377;-92
2023/10/21 03:48:17;;;;;;;119.80;32.47;;;11.20;99.90;;;;;;6129483;23;20452;-91
2023/10/21 03:50:43;;;;;;;76.30;29.37;;;11.60;99.90;;;;;;6155284;23;20393;-91
2023/10/21 03:53:09;;;;;;;105.07;32.67;;;11.20;99.90;;;;;;6154537;23;20369;-91
2023/10/21 03:55:35;;;;;;;94.03;30.88;;;11.10;99.90;;;;;;6154531;23;20452;-92
2023/10/21 03:58:01;;;;;;;132.50;36.53;;;10.80;99.90;;;;;;6154797;23;20431;-93
2023/10/21 04:00:27;;;;;;;85.30;31.13;;;11.50;99.90;;;;;;6153342;23;20400;-92
2023/10/21 04:02:52;;;;;;;81.83;33.73;;;11.10;99.90;;;;;;6155141;23;20365;-93
2023/10/21 04:05:18;;;;;;;108.90;34.92;;;11.40;99.90;;;;;;6153355;23;20936;-92
2023/10/21 04:07:44;;;;;;;109.73;37.30;;;10.60;99.90;;;;;;6155190;23;20716;-93
2023/10/21 04:10:10;;;;;;;106.73;37.23;;;10.50;99.90;;;;;;6154195;23;20401;-92
2023/10/21 04:12:36;;;;;;;112.93;36.83;;;11.00;99.90;;;;;;6130068;23;20504;-92
2023/10/21 04:15:03;;;;;;;119.88;39.58;;;10.60;99.90;;;;;;6154410;23;20440;-91
2023/10/21 04:17:28;;;;;;;115.18;40.03;;;10.50;99.90;;;;;;6130250;23;20369;-93
2023/10/21 04:19:54;;;;;;;103.75;41.25;;;10.20;99.90;;;;;;6154114;23;20393;-92
2023/10/21 04:22:20;;;;;;;137.25;47.53;;;10.50;99.90;;;;;;6153361;23;20762;-93
2023/10/21 04:24:46;;;;;;;101.97;42.88;;;10.80;99.90;;;;;;6154974;23;20695;-93
2023/10/21 04:27:11;;;;;;;130.50;48.30;;;10.50;99.90;;;;;;6153481;23;20390;-93
2023/10/21 04:29:37;;;;;;;122.22;49.10;;;10.00;99.90;;;;;;6154848;23;20818;-92
2023/10/21 04:32:03;;;;;;;117.80;47.30;;;10.60;99.90;;;;;;6153999;23;20820;-93
2023/10/21 04:34:28;;;;;;;122.30;49.67;;;10.40;99.90;;;;;;6153879;23;20733;-92
2023/10/21 04:36:54;;;;;;;117.57;49.70;;;10.60;99.90;;;;;;6154463;23;20449;-93
2023/10/21 04:39:20;;;;;;;137.67;51.97;;;10.50;99.90;;;;;;6153463;23;20432;-93
2023/10/21 04:41:48;;;;;;;133.57;54.17;;;10.60;99.90;;;;;;6154935;23;20373;-93
2023/10/21 04:44:14;;;;;;;122.03;51.73;;;10.40;99.90;;;;;;6138084;23;20431;-92
2023/10/21 04:46:39;;;;;;;112.17;50.23;;;10.90;99.90;;;;;;6129835;23;20834;-94
2023/10/21 04:49:05;;;;;;;188.20;64.03;;;10.50;99.90;;;;;;6128620;23;20380;-93
2023/10/21 04:51:31;;;;;;;156.45;60.05;;;10.40;99.90;;;;;;6128322;23;20719;-93
2023/10/21 04:53:57;;;;;;;159.82;60.55;;;10.30;99.90;;;;;;6128065;23;20873;-92
2023/10/21 04:56:25;;;;;;;120.57;52.77;;;10.60;99.90;;;;;;6128433;23;20365;-92
2023/10/21 04:58:51;;;;;;;134.68;56.22;;;10.70;99.90;;;;;;6128855;23;20429;-93
2023/10/21 05:01:16;;;;;;;132.63;70.63;;;10.50;99.90;;;;;;6127575;23;20855;-91
2023/10/21 05:03:43;;;;;;;176.32;62.17;;;10.90;99.90;;;;;;6130039;23;20469;-92
2023/10/21 05:06:09;;;;;;;145.50;56.50;;;10.80;99.90;;;;;;6128581;23;20699;-93
2023/10/21 05:08:34;;;;;;;153.05;61.35;;;10.90;99.90;;;;;;6128932;23;20369;-92
2023/10/21 05:11:00;;;;;;;115.55;50.35;;;11.20;99.90;;;;;;6128805;23;20365;-91
2023/10/21 05:13:26;;;;;;;128.57;55.80;;;10.50;99.90;;;;;;6129114;23;20401;-92
2023/10/21 05:15:51;;;;;;;129.00;53.90;;;11.40;99.90;;;;;;6129292;23;20401;-94
2023/10/21 05:18:17;;;;;;;110.82;50.85;;;10.80;99.90;;;;;;6128164;23;20373;-93
2023/10/21 05:20:43;;;;;;;131.63;54.27;;;10.90;99.90;;;;;;6129464;23;20394;-93
2023/10/21 05:23:08;;;;;;;102.68;49.53;;;10.80;99.90;;;;;;6127907;23;20437;-93
2023/10/21 05:25:34;;;;;;;124.88;52.70;;;10.90;99.90;;;;;;6129957;23;20378;-91
2023/10/21 05:28:00;;;;;;;171.68;62.50;;;10.80;99.90;;;;;;6128539;23;20979;-93
2023/10/21 05:30:26;;;;;;;110.43;47.63;;;10.60;99.90;;;;;;6128750;23;20461;-93
2023/10/21 05:32:51;;;;;;;104.10;46.83;;;10.50;99.90;;;;;;6128278;23;20903;-92
2023/10/21 05:35:17;;;;;;;106.60;46.72;;;10.60;99.90;;;;;;6128039;23;20370;-93
2023/10/21 05:37:43;;;;;;;109.72;47.42;;;11.30;99.90;;;;;;6153417;23;20355;-91
2023/10/21 05:40:09;;;;;;;130.77;51.17;;;10.90;99.90;;;;;;6127868;23;20730;-93
2023/10/21 05:42:35;;;;;;;107.32;47.42;;;10.50;99.90;;;;;;6129113;23;20376;-94
2023/10/21 05:45:01;;;;;;;123.47;51.90;;;11.50;99.90;;;;;;6147425;23;20377;-92
2023/10/21 05:47:26;;;;;;;96.93;44.17;;;10.50;99.90;;;;;;6154070;23;20381;-92
2023/10/21 05:49:53;;;;;;;96.43;44.97;;;10.90;99.90;;;;;;6153423;23;20843;-92
2023/10/21 05:52:19;;;;;;;101.20;45.40;;;10.70;99.90;;;;;;6127347;23;20372;-93
2023/10/21 05:54:45;;;;;;;90.40;42.37;;;11.40;99.90;;;;;;6151760;23;20405;-93
2023/10/21 05:57:10;;;;;;;112.77;47.47;;;10.70;99.90;;;;;;6150719;23;20373;-93
2023/10/21 05:59:37;;;;;;;129.30;50.92;;;10.50;99.90;;;;;;6151318;23;20730;-91
2023/10/21 06:02:03;;;;;;;108.28;45.85;;;11.20;99.90;;;;;;6152032;23;20373;-92
2023/10/21 06:04:31;;;;;;;109.97;47.13;;;10.50;99.90;;;;;;6154130;23;20370;-93
2023/10/21 06:06:57;;;;;;;113.43;47.33;;;10.20;99.90;;;;;;6153018;23;20429;-92
2023/10/21 06:09:23;;;;;;;116.88;46.88;;;10.70;99.90;;;;;;6153060;23;20892;-92
2023/10/21 06:11:50;;;;;;;103.32;46.22;;;10.60;99.90;;;;;;6129033;23;20408;-92
2023/10/21 06:14:17;;;;;;;109.95;48.00;;;10.60;99.90;;;;;;6127967;23;20366;-92
2023/10/21 06:16:43;;;;;;;132.88;49.35;;;10.80;99.90;;;;;;6128974;23;20405;-93
2023/10/21 06:19:09;;;;;;;136.77;53.40;;;10.70;99.90;;;;;;6127904;23;20393;-93
2023/10/21 06:21:36;;;;;;;130.80;50.13;;;10.80;99.90;;;;;;6129660;23;20373;-92
2023/10/21 06:24:03;;;;;;;128.18;53.40;;;10.50;99.90;;;;;;6127913;23;21147;-92
2023/10/21 06:26:31;;;;;;;147.05;54.78;;;10.50;99.90;;;;;;6128944;23;20407;-93
2023/10/21 06:28:57;;;;;;;100.30;47.78;;;11.50;99.90;;;;;;6128314;23;20369;-93
2023/10/21 06:31:23;;;;;;;104.90;49.95;;;11.40;99.90;;;;;;6127866;23;20373;-93
2023/10/21 06:33:49;;;;;;;120.45;50.92;;;10.70;99.90;;;;;;6153136;23;20398;-93
2023/10/21 06:36:15;;;;;;;124.47;50.75;;;11.10;99.90;;;;;;6152082;23;20420;-92
2023/10/21 06:38:41;;;;;;;109.30;49.33;;;10.80;99.90;;;;;;6128713;23;20373;-93
2023/10/21 06:41:07;;;;;;;111.27;45.87;;;10.60;99.90;;;;;;6151894;23;20705;-93
2023/10/21 06:43:33;;;;;;;101.93;44.83;;;10.50;99.90;;;;;;6129883;23;20378;-92
2023/10/21 06:45:59;;;;;;;100.75;44.75;;;10.70;99.90;;;;;;6128059;23;20889;-94
2023/10/21 06:48:26;;;;;;;103.88;44.08;;;11.30;99.90;;;;;;6128284;23;20385;-93
2023/10/21 06:50:52;;;;;;;80.13;40.03;;;10.60;99.90;;;;;;6128391;23;20479;-93
2023/10/21 06:53:18;;;;;;;94.82;41.97;;;11.30;99.90;;;;;;6127181;23;20433;-93
2023/10/21 06:55:44;;;;;;;85.13;40.60;;;11.00;99.90;;;;;;6128587;23;20369;-93
2023/10/21 06:58:11;;;;;;;64.07;35.57;;;11.10;99.90;;;;;;6127019;23;20369;-92
2023/10/21 07:00:38;;;;;;;86.45;39.50;;;11.10;99.90;;;;;;6128676;23;20401;-92
2023/10/21 07:03:05;;;;;;;76.78;38.47;;;11.20;99.90;;;;;;6127406;23;20392;-94
2023/10/21 07:05:30;;;;;;;89.93;40.38;;;11.30;99.90;;;;;;6128093;23;20438;-92
2023/10/21 07:07:56;;;;;;;75.72;38.15;;;11.20;99.90;;;;;;6128236;23;20366;-94
2023/10/21 07:10:23;;;;;;;72.87;37.23;;;11.80;99.90;;;;;;6127115;23;20838;-91
2023/10/21 07:12:51;;;;;;;66.72;35.72;;;11.30;99.90;;;;;;6130172;23;20377;-91
2023/10/21 07:15:17;;;;;;;71.40;35.65;;;11.50;99.90;;;;;;6128464;23;20365;-92
2023/10/21 07:17:43;;;;;;;80.70;37.72;;;11.30;99.90;;;;;;6130221;23;20408;-92
2023/10/21 07:20:09;;;;;;;59.25;33.72;;;11.30;99.90;;;;;;6129474;23;20397;-92
2023/10/21 07:22:36;;;;;;;88.22;38.22;;;11.40;99.90;;;;;;6130226;23;20440;-91
2023/10/21 07:25:01;;;;;;;64.13;34.00;;;11.80;99.90;;;;;;6129934;23;20406;-91
2023/10/21 07:27:27;;;;;;;62.38;34.28;;;12.60;99.90;;;;;;6129625;23;20699;-92
2023/10/21 07:29:55;;;;;;;76.53;36.28;;;11.90;99.90;;;;;;6129894;23;20371;-91
2023/10/21 07:32:22;;;;;;;83.15;37.80;;;11.70;99.90;;;;;;6129187;23;20368;-92
2023/10/21 07:34:48;;;;;;;78.75;38.33;;;11.80;99.90;;;;;;6130395;23;20365;-92
2023/10/21 07:37:13;;;;;;;92.45;38.83;;;12.20;99.90;;;;;;6128187;23;20873;-92
2023/10/21 07:39:39;;;;;;;53.20;31.40;;;12.20;99.90;;;;;;6129325;23;20389;-92
2023/10/21 07:42:05;;;;;;;70.90;35.65;;;12.10;99.90;;;;;;6128106;23;21162;-91
2023/10/21 07:44:31;;;;;;;51.07;30.87;;;12.00;99.90;;;;;;6142034;23;20382;-91
2023/10/21 07:46:57;;;;;;;83.53;37.87;;;12.00;99.90;;;;;;6153748;23;20373;-91
2023/10/21 07:49:23;;;;;;;76.50;35.85;;;12.50;99.90;;;;;;6152206;23;20369;-91
2023/10/21 07:51:49;;;;;;;48.70;30.00;;;12.20;99.90;;;;;;6154128;23;20976;-91
2023/10/21 07:54:15;;;;;;;85.75;37.22;;;11.80;99.90;;;;;;6153142;23;20366;-90
2023/10/21 07:56:45;;;;;;;51.78;31.02;;;12.40;99.90;;;;;;6154187;23;20440;-91
2023/10/21 07:59:11;;;;;;;53.90;30.67;;;12.20;99.90;;;;;;6129224;23;20389;-90
2023/10/21 08:01:37;;;;;;;55.10;31.02;;;12.10;99.90;;;;;;6128604;23;20912;-91
2023/10/21 08:04:03;;;;;;;53.47;30.08;;;12.60;99.90;;;;;;6129546;23;20366;-92
2023/10/21 08:06:29;;;;;;;51.17;29.65;;;12.40;99.90;;;;;;6129246;23;20404;-93
2023/10/21 08:08:55;;;;;;;62.03;31.33;;;12.60;99.90;;;;;;6130105;23;20361;-92
2023/10/21 08:11:21;;;;;;;52.05;28.63;;;12.80;99.90;;;;;;6153723;23;20455;-92
2023/10/21 08:13:47;;;;;;;51.67;29.23;;;12.70;99.90;;;;;;6154760;23;20464;-91
2023/10/21 08:16:13;;;;;;;59.50;31.40;;;12.90;99.90;;;;;;6153149;23;20465;-91
2023/10/21 08:18:40;;;;;;;41.70;28.43;;;12.80;99.90;;;;;;6154097;23;20402;-92
2023/10/21 08:21:05;;;;;;;41.13;26.85;;;12.70;99.90;;;;;;6129694;23;20365;-92
2023/10/21 08:23:31;;;;;;;44.30;28.60;;;12.90;99.90;;;;;;6153461;23;20451;-92
2023/10/21 08:25:57;;;;;;;54.47;31.45;;;13.40;99.90;;;;;;6130108;23;20380;-90
2023/10/21 08:28:24;;;;;;;51.72;30.27;;;13.40;99.90;;;;;;6153391;23;20400;-92
2023/10/21 08:30:50;;;;;;;38.83;26.08;;;13.00;99.90;;;;;;6129804;23;20376;-92
2023/10/21 08:33:16;;;;;;;48.23;28.50;;;13.10;99.90;;;;;;6153083;23;20378;-91
2023/10/21 08:35:42;;;;;;;44.30;26.55;;;13.30;99.90;;;;;;6129904;23;20377;-91
2023/10/21 08:38:08;;;;;;;30.70;23.65;;;13.60;99.90;;;;;;6129409;23;20405;-91
2023/10/21 08:40:41;;;;;;;35.17;24.85;;;13.50;99.90;;;;;;6153831;23;20424;-93
2023/10/21 08:43:08;;;;;;;36.38;25.05;;;13.60;99.90;;;;;;6154790;23;20847;-90
2023/10/21 08:45:39;;;;;;;33.92;24.13;;;13.70;99.90;;;;;;6158436;23;20368;-96
2023/10/21 08:48:06;;;;;;;27.70;21.73;;;13.90;99.90;;;;;;6159778;23;20376;-92
2023/10/21 08:50:35;;;;;;;32.92;21.40;;;13.70;99.90;;;;;;6157731;23;20376;-92
2023/10/21 08:53:05;;;;;;;24.53;19.70;;;14.00;99.90;;;;;;6159661;23;20856;-94
2023/10/21 08:55:35;;;;;;;21.55;17.42;;;14.10;99.90;;;;;;6158644;23;20431;-92
2023/10/21 08:58:01;;;;;;;26.73;20.10;;;14.00;99.90;;;;;;6159249;23;20368;-92
2023/10/21 09:00:27;;;;;;;24.80;18.80;;;14.00;99.90;;;;;;6160323;23;20878;-92
2023/10/21 09:02:53;;;;;;;22.25;17.35;;;14.00;99.90;;;;;;6159318;23;20395;-90
2023/10/21 09:05:18;;;;;;;23.23;17.25;;;14.10;99.90;;;;;;6160053;23;20367;-92
2023/10/21 09:07:49;;;;;;;22.73;17.33;;;14.30;99.90;;;;;;6158304;23;20374;-93
2023/10/21 09:10:15;;;;;;;26.92;19.77;;;14.40;99.90;;;;;;6158891;23;20368;-92
2023/10/21 09:12:41;;;;;;;21.17;16.45;;;14.10;99.90;;;;;;6157412;23;20369;-93
2023/10/21 09:15:09;;;;;;;20.87;15.30;;;14.20;99.90;;;;;;6158633;23;20368;-95
2023/10/21 09:17:52;;;;;;;17.05;13.82;;;14.10;99.90;;;;;;6158514;23;20364;-94
2023/10/21 09:20:19;;;;;;;17.98;15.15;;;14.30;99.90;;;;;;6161853;23;20391;-95
2023/10/21 09:22:51;;;;;;;21.10;17.50;;;14.40;99.90;;;;;;6159660;23;20370;-94
2023/10/21 09:25:23;;;;;;;16.70;14.10;;;14.80;99.90;;;;;;6159181;23;20367;-94
2023/10/21 09:27:54;;;;;;;17.75;13.10;;;14.60;99.90;;;;;;6160702;23;20406;-92
2023/10/21 09:30:22;;;;;;;17.10;12.20;;;15.10;99.90;;;;;;6157627;23;20458;-95
2023/10/21 09:32:49;;;;;;;16.58;12.57;;;14.90;99.90;;;;;;6158377;23;20364;-92
2023/10/21 09:35:30;;;;;;;17.07;11.63;;;14.60;99.90;;;;;;6159372;23;20379;-96
2023/10/21 09:38:13;;;;;;;16.77;12.43;;;14.50;99.90;;;;;;6158681;23;20396;-94
2023/10/21 09:40:40;;;;;;;20.63;14.65;;;14.40;99.90;;;;;;6158908;23;20387;-93
2023/10/21 09:43:10;;;;;;;14.95;12.20;;;14.50;99.90;;;;;;6157168;23;20402;-94
2023/10/21 09:45:37;;;;;;;13.23;10.70;;;14.80;99.90;;;;;;6183185;23;20375;-95
2023/10/21 09:48:07;;;;;;;11.63;9.77;;;14.90;99.90;;;;;;6157171;23;20403;-95
2023/10/21 09:50:51;;;;;;;13.38;10.35;;;14.50;99.90;;;;;;6161075;23;20399;-95
2023/10/21 09:53:29;;;;;;;12.60;9.30;;;14.50;99.90;;;;;;6157786;23;20379;-94
2023/10/21 09:55:55;;;;;;;10.73;8.95;;;14.50;99.90;;;;;;6159347;23;20378;-95
2023/10/21 09:58:23;;;;;;;11.25;8.07;;;14.50;99.90;;;;;;6159385;23;20458;-94
2023/10/21 10:00:48;;;;;;;12.73;9.30;;;14.80;99.90;;;;;;6157788;23;20430;-94
2023/10/21 10:03:15;;;;;;;10.03;8.37;;;14.90;99.90;;;;;;6158556;23;20382;-95
2023/10/21 10:05:48;;;;;;;14.57;9.87;;;14.90;99.90;;;;;;6157005;23;20368;-96
2023/10/21 10:08:16;;;;;;;10.13;7.13;;;14.80;99.90;;;;;;6161914;23;20454;-95
2023/10/21 10:10:43;;;;;;;13.88;9.25;;;14.50;99.90;;;;;;6157182;23;20364;-94
2023/10/21 10:13:11;;;;;;;13.90;9.40;;;14.50;99.90;;;;;;6157299;23;20363;-95
2023/10/21 10:15:39;;;;;;;13.85;10.40;;;14.80;99.90;;;;;;6157947;23;20368;-94
2023/10/21 10:18:13;;;;;;;13.60;9.63;;;14.40;99.90;;;;;;6157479;23;20371;-95
2023/10/21 10:20:52;;;;;;;11.18;8.25;;;14.60;99.90;;;;;;6158399;23;20996;-93
2023/10/21 10:23:24;;;;;;;10.32;7.35;;;14.30;99.90;;;;;;6157509;23;20383;-92
2023/10/21 10:25:51;;;;;;;8.90;5.38;;;14.70;99.90;;;;;;6159067;23;20378;-96
2023/10/21 10:28:27;;;;;;;6.65;4.93;;;14.70;99.90;;;;;;6157632;23;20364;-93
2023/10/21 10:30:54;;;;;;;8.50;5.10;;;14.40;99.90;;;;;;6157178;23;20423;-95
2023/10/21 10:33:28;;;;;;;8.87;5.40;;;14.20;99.90;;;;;;6157924;23;20372;-94
2023/10/21 10:36:00;;;;;;;5.70;4.50;;;14.50;99.90;;;;;;6156730;23;20376;-95
2023/10/21 10:38:44;;;;;;;7.57;5.32;;;14.50;99.90;;;;;;6158442;23;20853;-95
2023/10/21 10:41:18;;;;;;;7.28;5.93;;;13.60;99.90;;;;;;6157067;23;22768;-93
2023/10/21 10:43:46;;;;;;;6.65;5.40;;;14.60;99.90;;;;;;6157880;23;20381;-93
2023/10/21 10:46:24;;;;;;;7.97;5.82;;;14.50;99.90;;;;;;6168441;23;20364;-93
2023/10/21 10:48:51;;;;;;;7.37;5.97;;;15.00;99.90;;;;;;6158099;23;20371;-95
2023/10/21 10:51:27;;;;;;;8.27;6.63;;;14.60;99.90;;;;;;6156097;23;20675;-95
2023/10/21 10:54:00;;;;;;;5.70;5.10;;;14.80;99.90;;;;;;6160143;23;20460;-95
2023/10/21 10:56:39;;;;;;;5.20;4.70;;;14.50;99.90;;;;;;6160779;23;20379;-94
2023/10/21 10:59:05;;;;;;;6.87;5.40;;;14.90;99.90;;;;;;6156798;23;20395;-95
2023/10/21 11:01:31;;;;;;;7.20;5.03;;;14.90;99.90;;;;;;6157909;23;20382;-94
2023/10/21 11:04:01;;;;;;;5.25;4.75;;;14.80;99.90;;;;;;6156916;23;20368;-94
2023/10/21 11:06:56;;;;;;;6.47;4.95;;;15.00;99.90;;;;;;6157088;23;20364;-91
2023/10/21 11:09:32;;;;;;;5.10;3.00;;;14.90;99.90;;;;;;6158189;23;20375;-94
2023/10/21 11:11:58;;;;;;;4.25;2.90;;;15.00;99.90;;;;;;6157500;23;20375;-91
2023/10/21 11:14:24;;;;;;;3.90;2.70;;;15.20;99.90;;;;;;6157538;23;20364;-95
2023/10/21 11:16:50;;;;;;;3.47;2.22;;;14.80;99.90;;;;;;6156883;23;20386;-92
2023/10/21 11:19:16;;;;;;;4.20;2.90;;;15.20;99.90;;;;;;6157151;23;20498;-93
2023/10/21 11:21:48;;;;;;;3.28;2.85;;;14.80;99.90;;;;;;6156805;23;20368;-94
2023/10/21 11:24:14;;;;;;;4.72;2.75;;;14.90;99.90;;;;;;6156729;23;20368;-92
2023/10/21 11:26:41;;;;;;;3.60;2.67;;;15.60;99.90;;;;;;6157225;23;20378;-94
2023/10/21 11:29:07;;;;;;;3.17;2.28;;;15.00;99.90;;;;;;6157015;23;20791;-93
2023/10/21 11:31:36;;;;;;;5.38;2.80;;;15.30;99.90;;;;;;6157673;23;20368;-94
2023/10/21 11:34:12;;;;;;;3.22;1.85;;;15.10;99.90;;;;;;6157175;23;20411;-94
2023/10/21 11:36:40;;;;;;;3.77;2.70;;;14.70;99.90;;;;;;6157493;23;20756;-94
2023/10/21 11:39:13;;;;;;;3.47;2.08;;;14.60;99.90;;;;;;6156719;23;20398;-96
2023/10/21 11:41:52;;;;;;;2.83;1.80;;;14.50;99.90;;;;;;6181696;23;20442;-93
2023/10/21 11:44:25;;;;;;;4.30;1.83;;;14.50;99.90;;;;;;6152030;23;20478;-93
2023/10/21 11:46:58;;;;;;;3.65;1.70;;;14.50;99.90;;;;;;6128868;23;20382;-92
2023/10/21 11:49:25;;;;;;;2.95;1.00;;;14.50;99.90;;;;;;6153025;23;20865;-93
2023/10/21 11:51:55;;;;;;;2.28;1.00;;;14.80;99.90;;;;;;6128936;23;20361;-95
2023/10/21 11:54:39;;;;;;;3.83;1.40;;;14.60;99.90;;;;;;6130571;23;20365;-95
2023/10/21 12:03:31;;;;;;;2.90;0.60;;;15.00;99.90;;;;;;6154059;23;20476;-96
2023/10/21 12:18:59;;;;;;;3.20;0.52;;;14.90;99.90;;;;;;6100483;23;20377;-94
2023/10/21 12:42:56;;;;;;;1.92;0.30;;;15.40;99.90;;;;;;6184432;23;20852;-93
2023/10/21 12:45:27;;;;;;;1.88;0.32;;;15.50;99.90;;;;;;6158985;23;20417;-93
2023/10/21 12:47:57;;;;;;;2.55;0.38;;;15.50;99.90;;;;;;6158218;23;20383;-93
2023/10/21 12:53:01;;;;;;;1.67;0.30;;;15.90;99.90;;;;;;6188157;23;20413;-95
2023/10/21 12:55:58;;;;;;;2.20;0.30;;;16.10;99.90;;;;;;6158290;23;20752;-94
2023/10/21 12:58:24;;;;;;;2.83;0.40;;;15.80;99.90;;;;;;6166343;23;20368;-93
2023/10/21 13:00:49;;;;;;;1.83;0.20;;;15.70;99.90;;;;;;6158520;23;20448;-93
2023/10/21 13:03:16;;;;;;;1.87;0.30;;;15.90;99.90;;;;;;6160362;23;20379;-93
2023/10/21 13:05:46;;;;;;;2.03;0.30;;;15.60;99.90;;;;;;6158124;23;20462;-93
2023/10/21 13:08:11;;;;;;;2.73;0.30;;;15.80;99.90;;;;;;6158146;23;20376;-92
2023/10/21 13:10:38;;;;;;;1.67;0.30;;;15.70;99.90;;;;;;6159751;23;20386;-92
2023/10/21 13:13:05;;;;;;;3.67;0.40;;;15.60;99.90;;;;;;6156926;23;20891;-91